Proctorville, North Carolina
Current Conditions -  °F | °C
As of 12:54 PM on Saturday 25 Oct 2014 (Local Time) from KLBT Reporting Station
Clear Clear  
Wind Chill: 72°   Ceiling: Unl
Heat Index: 72°   Visibility: 10mi
Dew Point: 41°   Wind: 6mph
Humidity: 33%   Direction: 300°WNW
Pressure: 29.98"   Gusts: NA
Location:  34.48°N, 79.04°W
Report Text: KLBT 251654Z AUTO 30005KT 10SM CLR 22/05 A2998 RMK AO2 SLP151 T02220050
Loading
Personal Weather Stations






























Interactive Weather Map
Tropical Storm Tracking
New forecast layout! Learn more

10-Day Weather Forecast

Advertisements
Track Severe Weather on mobile